Impacts TAF Board
For situational awareness. Not to be used for flight planning purposes.
IDs:

KMOB - Mobile Rgnl, AL, US

Issued at 1530 UTC 23 Sep 2020
Updated at 1635 UTC 23 Sep 2020
Potential Impact None Slight Moderate High
Time1556Z 23/17Z 23/18Z 23/19Z 23/20Z 23/21Z 23/22Z 23/23Z 24/00Z 24/01Z 24/02Z 24/03Z 24/04Z 24/05Z>>
Type OBS PRVL PRVL
  [TEMP]  
PRVL
  [TEMP]  
PRVL
  [TEMP]  
PRVL PRVL PRVL PRVL PRVL PRVL PRVL PRVL PRVL
VIS 7 >6 >6
  [4]  
>6
  [4]  
>6
  [4]  
6 6 6 6 6 6 6 6 6
CIG 16 25 25
  [15]  
25
  [15]  
25
  [15]  
22 22 22 22 22 22 19 19 19
Cover OVC BKN BKN
  [OVC]  
BKN
  [OVC]  
BKN
  [OVC]  
BKN BKN BKN BKN BKN BKN BKN BKN BKN
FltCat MVFR MVFR MVFR
  [MVFR]  
MVFR
  [MVFR]  
MVFR
  [MVFR]  
MVFR MVFR MVFR MVFR MVFR MVFR MVFR MVFR MVFR
WX -- VCSH VCSH
  [SHRA]  
VCSH
  [SHRA]  
VCSH
  [SHRA]  
SHRA SHRA SHRA SHRA SHRA SHRA SHRA SHRA SHRA
WDir 110 100 100
[100]
100
[100]
100
[100]
130 130 130 130 130 130 130 130 130
WSpd 12 12 12
  [12]  
12
  [12]  
12
  [12]  
13 13 13 13 13 13 11 11 11
WGst -- -- --
  [--]  
--
  [--]  
--
  [--]  
-- -- -- -- -- -- -- -- --
R14/32
XWnd 7 8 8 8 8 3 3 3 3 3 3 3 3 3
XGst -- -- 0 0 0 -- -- -- -- -- -- -- -- --
HWnd 10 9 9 9 9 13 13 13 13 13 13 11 11 11
HGst -- -- 0 0 0 -- -- -- -- -- -- -- -- --
R18/36
XWnd 11 12 12 12 12 10 10 10 10 10 10 8 8 8
XGst -- -- 0 0 0 -- -- -- -- -- -- -- -- --
HWnd 4 2 2 2 2 8 8 8 8 8 8 7 7 7
HGst -- -- 0 0 0 -- -- -- -- -- -- -- -- --
Raw TAF
KMOB 231530Z 2316/2412 10012KT P6SM VCSH BKN025
  TEMPO 2318/2321 4SM SHRA OVC015
  FM232100 13013KT 6SM SHRA BKN022
  FM240300 13011KT 6SM SHRA BKN019
  PROB30 2406/2412 4SM TSRA OVC008CB


Raw METAR
KMOB 231556Z 11012KT 7SM FEW008 BKN016 OVC060 26/22 A3000 RMK AO2 SLP154 T02560217 $
KMOB 231456Z 09011KT 7SM SCT016 BKN027 BKN060 24/21 A3000 RMK AO2 SLP156 T02440206 53004 $
KMOB 231443Z 10010KT 7SM SCT023 BKN055 BKN100 24/21 A3000 RMK AO2 T02390206 $
KMOB 231432Z 09007KT 7SM BKN020 BKN055 BKN100 23/20 A3000 RMK AO2 T02330200 $
KMOB 231416Z 08008KT 7SM SCT015 BKN031 BKN055 23/20 A2999 RMK AO2 T02330200 $
KMOB 231410Z 08007KT 7SM BKN023 BKN055 BKN100 23/19 A3000 RMK AO2 T02280194 $
KMOB 231356Z 09009KT 10SM SCT028 BKN100 BKN250 23/19 A2999 RMK AO2 SLP154 T02280194 $

METAR Board
Radar Display
Forecast Discussion
For situational awareness. Not to be used for flight planning purposes.